sensor_id;sensor_type;location;lat;lon;timestamp;temperature;humidity
11079;DHT22;5592;49.234;7.268;2024-03-08T00:01:47;0.00;99.90
11079;DHT22;5592;49.234;7.268;2024-03-08T00:04:13;0.10;99.90
11079;DHT22;5592;49.234;7.268;2024-03-08T00:06:40;0.40;99.90
11079;DHT22;5592;49.234;7.268;2024-03-08T00:09:06;0.60;99.90
11079;DHT22;5592;49.234;7.268;2024-03-08T00:11:33;0.70;99.90
11079;DHT22;5592;49.234;7.268;2024-03-08T00:14:00;0.70;99.90
11079;DHT22;5592;49.234;7.268;2024-03-08T00:16:25;0.60;99.90
11079;DHT22;5592;49.234;7.268;2024-03-08T00:18:51;0.70;99.90
11079;DHT22;5592;49.234;7.268;2024-03-08T00:21:17;0.70;99.90
11079;DHT22;5592;49.234;7.268;2024-03-08T00:23:42;0.90;99.90
11079;DHT22;5592;49.234;7.268;2024-03-08T00:26:08;0.90;99.90
11079;DHT22;5592;49.234;7.268;2024-03-08T00:28:33;0.90;99.90
11079;DHT22;5592;49.234;7.268;2024-03-08T00:31:00;0.90;99.90
11079;DHT22;5592;49.234;7.268;2024-03-08T00:33:26;1.00;99.90
11079;DHT22;5592;49.234;7.268;2024-03-08T00:35:53;1.00;99.90
11079;DHT22;5592;49.234;7.268;2024-03-08T00:38:19;1.20;99.90
11079;DHT22;5592;49.234;7.268;2024-03-08T00:40:44;1.20;99.90
11079;DHT22;5592;49.234;7.268;2024-03-08T00:43:10;1.10;99.90
11079;DHT22;5592;49.234;7.268;2024-03-08T00:45:36;1.00;99.90
11079;DHT22;5592;49.234;7.268;2024-03-08T00:48:03;1.00;99.90
11079;DHT22;5592;49.234;7.268;2024-03-08T00:50:28;1.10;99.90
11079;DHT22;5592;49.234;7.268;2024-03-08T00:52:54;1.00;99.90
11079;DHT22;5592;49.234;7.268;2024-03-08T00:55:19;0.80;99.90
11079;DHT22;5592;49.234;7.268;2024-03-08T00:57:45;0.80;99.90
11079;DHT22;5592;49.234;7.268;2024-03-08T01:00:11;0.80;99.90
11079;DHT22;5592;49.234;7.268;2024-03-08T01:02:40;0.80;99.90
11079;DHT22;5592;49.234;7.268;2024-03-08T01:05:06;0.90;99.90
11079;DHT22;5592;49.234;7.268;2024-03-08T01:07:35;1.00;99.90
11079;DHT22;5592;49.234;7.268;2024-03-08T01:10:02;1.00;99.90
11079;DHT22;5592;49.234;7.268;2024-03-08T01:12:28;1.00;99.90
11079;DHT22;5592;49.234;7.268;2024-03-08T01:14:55;1.00;99.90
11079;DHT22;5592;49.234;7.268;2024-03-08T01:17:20;1.10;99.90
11079;DHT22;5592;49.234;7.268;2024-03-08T01:19:46;1.10;99.90
11079;DHT22;5592;49.234;7.268;2024-03-08T01:22:11;1.10;99.90
11079;DHT22;5592;49.234;7.268;2024-03-08T01:24:37;1.10;99.90
11079;DHT22;5592;49.234;7.268;2024-03-08T01:27:02;1.10;99.90
11079;DHT22;5592;49.234;7.268;2024-03-08T01:29:28;1.20;99.90
11079;DHT22;5592;49.234;7.268;2024-03-08T01:31:55;1.20;99.90
11079;DHT22;5592;49.234;7.268;2024-03-08T01:34:21;1.20;99.90
11079;DHT22;5592;49.234;7.268;2024-03-08T01:36:48;1.10;99.90
11079;DHT22;5592;49.234;7.268;2024-03-08T01:39:14;1.10;99.90
11079;DHT22;5592;49.234;7.268;2024-03-08T01:41:39;1.10;99.90
11079;DHT22;5592;49.234;7.268;2024-03-08T01:44:06;1.10;99.90
11079;DHT22;5592;49.234;7.268;2024-03-08T01:46:33;0.90;99.90
11079;DHT22;5592;49.234;7.268;2024-03-08T01:49:00;0.90;99.90
11079;DHT22;5592;49.234;7.268;2024-03-08T01:51:27;1.00;99.90
11079;DHT22;5592;49.234;7.268;2024-03-08T01:53:55;1.10;99.90
11079;DHT22;5592;49.234;7.268;2024-03-08T01:56:21;1.20;99.90
11079;DHT22;5592;49.234;7.268;2024-03-08T01:58:46;1.20;99.90
11079;DHT22;5592;49.234;7.268;2024-03-08T02:01:13;1.20;99.90
11079;DHT22;5592;49.234;7.268;2024-03-08T02:03:40;1.00;99.90
11079;DHT22;5592;49.234;7.268;2024-03-08T02:06:06;1.00;99.90
11079;DHT22;5592;49.234;7.268;2024-03-08T02:08:35;0.90;99.90
11079;DHT22;5592;49.234;7.268;2024-03-08T02:11:01;0.90;99.90
11079;DHT22;5592;49.234;7.268;2024-03-08T02:13:27;0.70;99.90
11079;DHT22;5592;49.234;7.268;2024-03-08T02:18:23;0.50;99.90
11079;DHT22;5592;49.234;7.268;2024-03-08T02:20:52;0.60;99.90
11079;DHT22;5592;49.234;7.268;2024-03-08T02:23:22;0.40;99.90
11079;DHT22;5592;49.234;7.268;2024-03-08T02:25:48;0.30;99.90
11079;DHT22;5592;49.234;7.268;2024-03-08T02:28:14;0.10;99.90
11079;DHT22;5592;49.234;7.268;2024-03-08T02:30:41;0.00;99.90
11079;DHT22;5592;49.234;7.268;2024-03-08T02:33:07;-0.10;99.90
11079;DHT22;5592;49.234;7.268;2024-03-08T02:35:35;-0.10;99.90
11079;DHT22;5592;49.234;7.268;2024-03-08T02:38:01;0.00;99.90
11079;DHT22;5592;49.234;7.268;2024-03-08T02:40:27;0.20;99.90
11079;DHT22;5592;49.234;7.268;2024-03-08T02:42:52;0.20;99.90
11079;DHT22;5592;49.234;7.268;2024-03-08T02:45:18;0.10;99.90
11079;DHT22;5592;49.234;7.268;2024-03-08T02:47:43;0.00;99.90
11079;DHT22;5592;49.234;7.268;2024-03-08T02:50:09;0.00;99.90
11079;DHT22;5592;49.234;7.268;2024-03-08T02:52:35;-0.10;99.90
11079;DHT22;5592;49.234;7.268;2024-03-08T02:55:01;-0.20;99.90
11079;DHT22;5592;49.234;7.268;2024-03-08T02:57:27;-0.30;99.90
11079;DHT22;5592;49.234;7.268;2024-03-08T02:59:53;-0.40;99.90
11079;DHT22;5592;49.234;7.268;2024-03-08T03:02:19;-0.40;99.90
11079;DHT22;5592;49.234;7.268;2024-03-08T03:04:44;-0.40;99.90
11079;DHT22;5592;49.234;7.268;2024-03-08T03:07:10;-0.40;99.90
11079;DHT22;5592;49.234;7.268;2024-03-08T03:09:36;-0.40;99.90
11079;DHT22;5592;49.234;7.268;2024-03-08T03:12:02;-0.20;99.90
11079;DHT22;5592;49.234;7.268;2024-03-08T03:14:28;-0.20;99.90
11079;DHT22;5592;49.234;7.268;2024-03-08T03:16:53;-0.30;99.90
11079;DHT22;5592;49.234;7.268;2024-03-08T03:19:20;-0.30;99.90
11079;DHT22;5592;49.234;7.268;2024-03-08T03:21:45;-0.30;99.90
11079;DHT22;5592;49.234;7.268;2024-03-08T03:24:11;-0.30;99.90
11079;DHT22;5592;49.234;7.268;2024-03-08T03:26:37;-0.10;99.90
11079;DHT22;5592;49.234;7.268;2024-03-08T03:29:05;0.20;99.90
11079;DHT22;5592;49.234;7.268;2024-03-08T03:31:31;0.40;99.90
11079;DHT22;5592;49.234;7.268;2024-03-08T03:33:57;0.50;99.90
11079;DHT22;5592;49.234;7.268;2024-03-08T03:36:31;0.60;99.90
11079;DHT22;5592;49.234;7.268;2024-03-08T03:38:57;0.70;99.90
11079;DHT22;5592;49.234;7.268;2024-03-08T03:41:35;0.80;99.90
11079;DHT22;5592;49.234;7.268;2024-03-08T03:44:00;0.80;99.90
11079;DHT22;5592;49.234;7.268;2024-03-08T03:46:26;0.90;99.90
11079;DHT22;5592;49.234;7.268;2024-03-08T03:48:53;1.00;99.90
11079;DHT22;5592;49.234;7.268;2024-03-08T03:51:19;1.00;99.90
11079;DHT22;5592;49.234;7.268;2024-03-08T03:53:45;1.10;99.90
11079;DHT22;5592;49.234;7.268;2024-03-08T03:56:10;1.20;99.90
11079;DHT22;5592;49.234;7.268;2024-03-08T03:58:36;1.30;99.90
11079;DHT22;5592;49.234;7.268;2024-03-08T04:01:04;1.30;99.90
11079;DHT22;5592;49.234;7.268;2024-03-08T04:03:30;1.30;99.90
11079;DHT22;5592;49.234;7.268;2024-03-08T04:05:55;1.30;99.90
11079;DHT22;5592;49.234;7.268;2024-03-08T04:08:21;1.30;99.90
11079;DHT22;5592;49.234;7.268;2024-03-08T04:10:46;1.20;99.90
11079;DHT22;5592;49.234;7.268;2024-03-08T04:13:12;1.00;99.90
11079;DHT22;5592;49.234;7.268;2024-03-08T04:15:37;0.90;99.90
11079;DHT22;5592;49.234;7.268;2024-03-08T04:18:03;0.90;99.90
11079;DHT22;5592;49.234;7.268;2024-03-08T04:20:29;0.80;99.90
11079;DHT22;5592;49.234;7.268;2024-03-08T04:22:55;0.60;99.90
11079;DHT22;5592;49.234;7.268;2024-03-08T04:25:21;0.50;99.90
11079;DHT22;5592;49.234;7.268;2024-03-08T04:27:47;0.40;99.90
11079;DHT22;5592;49.234;7.268;2024-03-08T04:30:14;0.60;99.90
11079;DHT22;5592;49.234;7.268;2024-03-08T04:32:39;0.60;99.90
11079;DHT22;5592;49.234;7.268;2024-03-08T04:35:08;0.70;99.90
11079;DHT22;5592;49.234;7.268;2024-03-08T04:37:33;0.70;99.90
11079;DHT22;5592;49.234;7.268;2024-03-08T04:39:59;0.60;99.90
11079;DHT22;5592;49.234;7.268;2024-03-08T04:42:26;0.50;99.90
11079;DHT22;5592;49.234;7.268;2024-03-08T04:44:52;0.30;99.90
11079;DHT22;5592;49.234;7.268;2024-03-08T04:47:19;0.10;99.90
11079;DHT22;5592;49.234;7.268;2024-03-08T04:49:44;0.00;99.90
11079;DHT22;5592;49.234;7.268;2024-03-08T04:52:10;-0.20;99.90
11079;DHT22;5592;49.234;7.268;2024-03-08T04:54:35;-0.40;99.90
11079;DHT22;5592;49.234;7.268;2024-03-08T04:57:01;-0.50;99.90
11079;DHT22;5592;49.234;7.268;2024-03-08T04:59:27;-0.70;99.90
11079;DHT22;5592;49.234;7.268;2024-03-08T05:01:53;-0.80;99.90
11079;DHT22;5592;49.234;7.268;2024-03-08T05:04:18;-0.90;99.90
11079;DHT22;5592;49.234;7.268;2024-03-08T05:06:44;-1.00;99.90
11079;DHT22;5592;49.234;7.268;2024-03-08T05:09:09;-1.00;99.90
11079;DHT22;5592;49.234;7.268;2024-03-08T05:11:45;-1.10;99.90
11079;DHT22;5592;49.234;7.268;2024-03-08T05:14:12;-1.10;99.90
11079;DHT22;5592;49.234;7.268;2024-03-08T05:16:46;-1.20;99.90
11079;DHT22;5592;49.234;7.268;2024-03-08T05:19:19;-1.30;99.90
11079;DHT22;5592;49.234;7.268;2024-03-08T05:21:46;-1.30;99.90
11079;DHT22;5592;49.234;7.268;2024-03-08T05:24:12;-1.30;99.90
11079;DHT22;5592;49.234;7.268;2024-03-08T05:26:39;-1.40;99.90
11079;DHT22;5592;49.234;7.268;2024-03-08T05:29:04;-1.40;99.90
11079;DHT22;5592;49.234;7.268;2024-03-08T05:31:35;-1.40;99.90
11079;DHT22;5592;49.234;7.268;2024-03-08T05:34:01;-1.50;99.90
11079;DHT22;5592;49.234;7.268;2024-03-08T05:36:27;-1.50;99.90
11079;DHT22;5592;49.234;7.268;2024-03-08T05:38:52;-1.50;99.90
11079;DHT22;5592;49.234;7.268;2024-03-08T05:41:19;-1.50;99.90
11079;DHT22;5592;49.234;7.268;2024-03-08T05:43:45;-1.40;99.90
11079;DHT22;5592;49.234;7.268;2024-03-08T05:46:10;-1.30;99.90
11079;DHT22;5592;49.234;7.268;2024-03-08T05:48:37;-1.40;99.90
11079;DHT22;5592;49.234;7.268;2024-03-08T05:51:03;-1.50;99.90
11079;DHT22;5592;49.234;7.268;2024-03-08T05:53:29;-1.60;99.90
11079;DHT22;5592;49.234;7.268;2024-03-08T05:55:57;-1.70;99.90
11079;DHT22;5592;49.234;7.268;2024-03-08T05:58:23;-1.70;99.90
11079;DHT22;5592;49.234;7.268;2024-03-08T06:00:48;-1.80;99.90
11079;DHT22;5592;49.234;7.268;2024-03-08T06:03:14;-1.80;99.90
11079;DHT22;5592;49.234;7.268;2024-03-08T06:05:39;-1.80;99.90
11079;DHT22;5592;49.234;7.268;2024-03-08T06:08:07;-1.80;99.90
11079;DHT22;5592;49.234;7.268;2024-03-08T06:10:33;-1.80;99.90
11079;DHT22;5592;49.234;7.268;2024-03-08T06:12:59;-1.80;99.90
11079;DHT22;5592;49.234;7.268;2024-03-08T06:15:25;-1.80;99.90
11079;DHT22;5592;49.234;7.268;2024-03-08T06:17:50;-1.80;99.90
11079;DHT22;5592;49.234;7.268;2024-03-08T06:20:18;-1.70;99.90
11079;DHT22;5592;49.234;7.268;2024-03-08T06:22:43;-1.70;99.90
11079;DHT22;5592;49.234;7.268;2024-03-08T06:25:11;-1.60;99.90
11079;DHT22;5592;49.234;7.268;2024-03-08T06:27:42;-1.40;99.90
11079;DHT22;5592;49.234;7.268;2024-03-08T06:30:12;-1.00;99.90
11079;DHT22;5592;49.234;7.268;2024-03-08T06:32:38;-0.40;99.90
11079;DHT22;5592;49.234;7.268;2024-03-08T06:35:04;0.40;99.90
11079;DHT22;5592;49.234;7.268;2024-03-08T06:37:34;1.40;99.90
11079;DHT22;5592;49.234;7.268;2024-03-08T06:40:00;2.00;99.90
11079;DHT22;5592;49.234;7.268;2024-03-08T06:42:29;2.60;99.90
11079;DHT22;5592;49.234;7.268;2024-03-08T06:44:59;3.10;99.90
11079;DHT22;5592;49.234;7.268;2024-03-08T06:47:25;3.70;99.90
11079;DHT22;5592;49.234;7.268;2024-03-08T06:49:51;4.40;99.90
11079;DHT22;5592;49.234;7.268;2024-03-08T06:52:18;4.80;99.90
11079;DHT22;5592;49.234;7.268;2024-03-08T06:54:44;5.30;99.90
11079;DHT22;5592;49.234;7.268;2024-03-08T06:57:10;5.70;99.90
11079;DHT22;5592;49.234;7.268;2024-03-08T06:59:37;6.20;99.90
11079;DHT22;5592;49.234;7.268;2024-03-08T07:02:03;6.80;99.90
11079;DHT22;5592;49.234;7.268;2024-03-08T07:04:29;7.40;99.90
11079;DHT22;5592;49.234;7.268;2024-03-08T07:06:57;7.80;99.90
11079;DHT22;5592;49.234;7.268;2024-03-08T07:09:23;8.10;99.90
11079;DHT22;5592;49.234;7.268;2024-03-08T07:11:51;8.40;99.90
11079;DHT22;5592;49.234;7.268;2024-03-08T07:14:24;8.80;99.90
11079;DHT22;5592;49.234;7.268;2024-03-08T07:16:50;9.30;99.90
11079;DHT22;5592;49.234;7.268;2024-03-08T07:19:16;9.70;99.90
11079;DHT22;5592;49.234;7.268;2024-03-08T07:21:43;10.40;99.90
11079;DHT22;5592;49.234;7.268;2024-03-08T07:24:10;10.90;99.90
11079;DHT22;5592;49.234;7.268;2024-03-08T07:27:05;11.30;99.90
11079;DHT22;5592;49.234;7.268;2024-03-08T07:29:32;11.70;99.90
11079;DHT22;5592;49.234;7.268;2024-03-08T07:31:58;11.90;99.90
11079;DHT22;5592;49.234;7.268;2024-03-08T07:34:43;12.40;99.90
11079;DHT22;5592;49.234;7.268;2024-03-08T07:37:09;13.10;99.90
11079;DHT22;5592;49.234;7.268;2024-03-08T07:39:38;13.10;99.90
11079;DHT22;5592;49.234;7.268;2024-03-08T07:42:04;13.50;99.90
11079;DHT22;5592;49.234;7.268;2024-03-08T07:44:31;13.30;99.90
11079;DHT22;5592;49.234;7.268;2024-03-08T07:46:58;13.90;99.90
11079;DHT22;5592;49.234;7.268;2024-03-08T07:49:24;13.90;99.90
11079;DHT22;5592;49.234;7.268;2024-03-08T07:51:53;14.00;99.90
11079;DHT22;5592;49.234;7.268;2024-03-08T07:54:41;13.60;99.90
11079;DHT22;5592;49.234;7.268;2024-03-08T07:57:07;13.30;99.90
11079;DHT22;5592;49.234;7.268;2024-03-08T07:59:33;13.40;99.90
11079;DHT22;5592;49.234;7.268;2024-03-08T08:01:58;13.50;99.90
11079;DHT22;5592;49.234;7.268;2024-03-08T08:04:24;13.70;99.90
11079;DHT22;5592;49.234;7.268;2024-03-08T08:06:53;13.60;99.90
11079;DHT22;5592;49.234;7.268;2024-03-08T08:09:20;13.60;99.90
11079;DHT22;5592;49.234;7.268;2024-03-08T08:11:56;14.60;99.90
11079;DHT22;5592;49.234;7.268;2024-03-08T08:14:22;15.40;99.90
11079;DHT22;5592;49.234;7.268;2024-03-08T08:16:48;15.50;99.90
11079;DHT22;5592;49.234;7.268;2024-03-08T08:19:17;16.20;99.90
11079;DHT22;5592;49.234;7.268;2024-03-08T08:21:49;16.40;99.90
11079;DHT22;5592;49.234;7.268;2024-03-08T08:24:16;17.40;99.90
11079;DHT22;5592;49.234;7.268;2024-03-08T08:26:45;17.60;99.60
11079;DHT22;5592;49.234;7.268;2024-03-08T08:29:27;17.90;99.00
11079;DHT22;5592;49.234;7.268;2024-03-08T08:32:00;17.90;97.20
11079;DHT22;5592;49.234;7.268;2024-03-08T08:34:30;17.90;97.60
11079;DHT22;5592;49.234;7.268;2024-03-08T08:36:58;18.40;95.30
11079;DHT22;5592;49.234;7.268;2024-03-08T08:39:27;18.40;95.60
11079;DHT22;5592;49.234;7.268;2024-03-08T08:41:54;18.40;96.50
11079;DHT22;5592;49.234;7.268;2024-03-08T08:44:20;18.70;94.10
11079;DHT22;5592;49.234;7.268;2024-03-08T08:46:46;19.00;92.90
11079;DHT22;5592;49.234;7.268;2024-03-08T08:49:11;18.30;93.40
11079;DHT22;5592;49.234;7.268;2024-03-08T08:51:41;17.30;94.50
11079;DHT22;5592;49.234;7.268;2024-03-08T08:54:08;16.90;94.00
11079;DHT22;5592;49.234;7.268;2024-03-08T08:56:36;17.20;94.60
11079;DHT22;5592;49.234;7.268;2024-03-08T08:59:08;17.40;95.50
11079;DHT22;5592;49.234;7.268;2024-03-08T09:01:35;18.30;93.70
11079;DHT22;5592;49.234;7.268;2024-03-08T09:04:03;17.30;93.00
11079;DHT22;5592;49.234;7.268;2024-03-08T09:06:30;16.70;93.80
11079;DHT22;5592;49.234;7.268;2024-03-08T09:08:56;16.80;94.50
11079;DHT22;5592;49.234;7.268;2024-03-08T09:11:27;17.50;94.00
11079;DHT22;5592;49.234;7.268;2024-03-08T09:13:57;17.20;93.80
11079;DHT22;5592;49.234;7.268;2024-03-08T09:16:25;17.20;93.80
11079;DHT22;5592;49.234;7.268;2024-03-08T09:18:51;17.30;93.20
11079;DHT22;5592;49.234;7.268;2024-03-08T09:21:17;17.50;93.90
11079;DHT22;5592;49.234;7.268;2024-03-08T09:23:43;17.50;93.20
11079;DHT22;5592;49.234;7.268;2024-03-08T09:26:10;16.90;93.00
11079;DHT22;5592;49.234;7.268;2024-03-08T09:28:38;17.30;93.80
11079;DHT22;5592;49.234;7.268;2024-03-08T09:31:04;17.30;94.00
11079;DHT22;5592;49.234;7.268;2024-03-08T09:33:31;17.20;93.20
11079;DHT22;5592;49.234;7.268;2024-03-08T09:35:57;17.40;92.30
11079;DHT22;5592;49.234;7.268;2024-03-08T09:38:29;17.60;92.60
11079;DHT22;5592;49.234;7.268;2024-03-08T09:40:56;17.90;92.60
11079;DHT22;5592;49.234;7.268;2024-03-08T09:43:22;17.90;92.40
11079;DHT22;5592;49.234;7.268;2024-03-08T09:45:51;18.10;91.40
11079;DHT22;5592;49.234;7.268;2024-03-08T09:48:17;17.70;92.10
11079;DHT22;5592;49.234;7.268;2024-03-08T09:50:44;17.80;92.30
11079;DHT22;5592;49.234;7.268;2024-03-08T09:53:12;17.80;91.70
11079;DHT22;5592;49.234;7.268;2024-03-08T09:55:39;17.70;91.40
11079;DHT22;5592;49.234;7.268;2024-03-08T09:58:09;16.80;92.40
11079;DHT22;5592;49.234;7.268;2024-03-08T10:00:55;16.20;92.90
11079;DHT22;5592;49.234;7.268;2024-03-08T10:03:23;15.90;93.70
11079;DHT22;5592;49.234;7.268;2024-03-08T10:05:53;15.20;93.50
11079;DHT22;5592;49.234;7.268;2024-03-08T10:10:57;15.20;94.30
11079;DHT22;5592;49.234;7.268;2024-03-08T10:13:27;14.60;94.20
11079;DHT22;5592;49.234;7.268;2024-03-08T10:15:56;14.20;95.20
11079;DHT22;5592;49.234;7.268;2024-03-08T10:18:33;14.10;95.10
11079;DHT22;5592;49.234;7.268;2024-03-08T10:21:08;14.20;95.60
11079;DHT22;5592;49.234;7.268;2024-03-08T10:23:38;14.40;95.90
11079;DHT22;5592;49.234;7.268;2024-03-08T10:26:15;14.80;95.70
11079;DHT22;5592;49.234;7.268;2024-03-08T10:28:48;15.30;95.80
11079;DHT22;5592;49.234;7.268;2024-03-08T10:31:15;15.90;94.80
11079;DHT22;5592;49.234;7.268;2024-03-08T10:33:43;16.50;94.10
11079;DHT22;5592;49.234;7.268;2024-03-08T10:36:15;16.90;94.30
11079;DHT22;5592;49.234;7.268;2024-03-08T10:38:43;16.30;94.10
11079;DHT22;5592;49.234;7.268;2024-03-08T10:41:16;15.70;95.60
11079;DHT22;5592;49.234;7.268;2024-03-08T10:54:57;15.50;94.90
11079;DHT22;5592;49.234;7.268;2024-03-08T10:57:24;14.60;96.20
11079;DHT22;5592;49.234;7.268;2024-03-08T10:59:50;14.60;97.10
11079;DHT22;5592;49.234;7.268;2024-03-08T11:02:17;14.30;95.80
11079;DHT22;5592;49.234;7.268;2024-03-08T11:04:48;14.10;96.40
11079;DHT22;5592;49.234;7.268;2024-03-08T11:07:15;12.90;97.50
11079;DHT22;5592;49.234;7.268;2024-03-08T11:09:44;13.00;97.80
11079;DHT22;5592;49.234;7.268;2024-03-08T11:14:51;13.80;98.30
11079;DHT22;5592;49.234;7.268;2024-03-08T11:20:11;13.80;99.20
11079;DHT22;5592;49.234;7.268;2024-03-08T11:23:09;13.70;98.10
11079;DHT22;5592;49.234;7.268;2024-03-08T11:25:37;14.10;97.80
11079;DHT22;5592;49.234;7.268;2024-03-08T11:28:27;13.30;99.20
11079;DHT22;5592;49.234;7.268;2024-03-08T11:33:29;13.20;99.70
11079;DHT22;5592;49.234;7.268;2024-03-08T11:38:45;14.40;99.20
11079;DHT22;5592;49.234;7.268;2024-03-08T11:41:19;14.30;97.70
11079;DHT22;5592;49.234;7.268;2024-03-08T11:43:47;14.10;98.40
11079;DHT22;5592;49.234;7.268;2024-03-08T11:46:15;13.80;98.80
11079;DHT22;5592;49.234;7.268;2024-03-08T11:48:44;13.50;98.60
11079;DHT22;5592;49.234;7.268;2024-03-08T11:51:11;13.40;99.10
11079;DHT22;5592;49.234;7.268;2024-03-08T11:53:38;12.70;99.90
11079;DHT22;5592;49.234;7.268;2024-03-08T11:56:08;12.30;99.70
11079;DHT22;5592;49.234;7.268;2024-03-08T11:58:35;11.90;99.90
11079;DHT22;5592;49.234;7.268;2024-03-08T12:01:04;11.80;99.90
11079;DHT22;5592;49.234;7.268;2024-03-08T12:03:33;11.80;99.90
11079;DHT22;5592;49.234;7.268;2024-03-08T12:06:00;11.70;99.90
11079;DHT22;5592;49.234;7.268;2024-03-08T12:08:26;11.40;99.90
11079;DHT22;5592;49.234;7.268;2024-03-08T12:10:55;11.20;99.90
11079;DHT22;5592;49.234;7.268;2024-03-08T12:13:26;10.90;99.90
11079;DHT22;5592;49.234;7.268;2024-03-08T12:15:56;10.60;99.90
11079;DHT22;5592;49.234;7.268;2024-03-08T12:18:22;10.40;99.90
11079;DHT22;5592;49.234;7.268;2024-03-08T12:20:48;10.30;99.90
11079;DHT22;5592;49.234;7.268;2024-03-08T12:23:15;10.30;99.90
11079;DHT22;5592;49.234;7.268;2024-03-08T12:25:42;10.30;99.90
11079;DHT22;5592;49.234;7.268;2024-03-08T12:28:09;10.40;99.90
11079;DHT22;5592;49.234;7.268;2024-03-08T12:30:51;10.60;99.90
11079;DHT22;5592;49.234;7.268;2024-03-08T12:33:19;10.60;99.90
11079;DHT22;5592;49.234;7.268;2024-03-08T12:35:55;10.10;99.90
11079;DHT22;5592;49.234;7.268;2024-03-08T12:38:21;9.80;99.90
11079;DHT22;5592;49.234;7.268;2024-03-08T12:41:00;9.90;99.90
11079;DHT22;5592;49.234;7.268;2024-03-08T12:43:26;9.90;99.90
11079;DHT22;5592;49.234;7.268;2024-03-08T12:45:55;10.10;99.90
11079;DHT22;5592;49.234;7.268;2024-03-08T12:48:21;10.10;99.90
11079;DHT22;5592;49.234;7.268;2024-03-08T12:50:46;9.90;99.90
11079;DHT22;5592;49.234;7.268;2024-03-08T12:53:13;9.70;99.90
11079;DHT22;5592;49.234;7.268;2024-03-08T12:55:39;9.60;99.90
11079;DHT22;5592;49.234;7.268;2024-03-08T12:58:06;9.60;99.90
11079;DHT22;5592;49.234;7.268;2024-03-08T13:00:36;9.70;99.90
11079;DHT22;5592;49.234;7.268;2024-03-08T13:03:02;9.80;99.90
11079;DHT22;5592;49.234;7.268;2024-03-08T13:05:28;10.00;99.90
11079;DHT22;5592;49.234;7.268;2024-03-08T13:07:55;10.00;99.90
11079;DHT22;5592;49.234;7.268;2024-03-08T13:10:22;9.90;99.90
11079;DHT22;5592;49.234;7.268;2024-03-08T13:12:48;9.70;99.90
11079;DHT22;5592;49.234;7.268;2024-03-08T13:15:14;9.50;99.90
11079;DHT22;5592;49.234;7.268;2024-03-08T13:17:48;9.40;99.90
11079;DHT22;5592;49.234;7.268;2024-03-08T13:20:14;9.40;99.90
11079;DHT22;5592;49.234;7.268;2024-03-08T13:22:45;9.40;99.90
11079;DHT22;5592;49.234;7.268;2024-03-08T13:25:10;9.40;99.90
11079;DHT22;5592;49.234;7.268;2024-03-08T13:27:41;9.40;99.90
11079;DHT22;5592;49.234;7.268;2024-03-08T13:30:11;9.40;99.90
11079;DHT22;5592;49.234;7.268;2024-03-08T13:32:44;9.30;99.90
11079;DHT22;5592;49.234;7.268;2024-03-08T13:35:10;9.40;99.90
11079;DHT22;5592;49.234;7.268;2024-03-08T13:37:42;9.30;99.90
11079;DHT22;5592;49.234;7.268;2024-03-08T13:40:09;9.10;99.90
11079;DHT22;5592;49.234;7.268;2024-03-08T13:42:40;9.10;99.90
11079;DHT22;5592;49.234;7.268;2024-03-08T13:45:08;9.30;99.90
11079;DHT22;5592;49.234;7.268;2024-03-08T13:47:38;9.20;99.90
11079;DHT22;5592;49.234;7.268;2024-03-08T13:50:06;9.10;99.90
11079;DHT22;5592;49.234;7.268;2024-03-08T13:52:33;9.10;99.90
11079;DHT22;5592;49.234;7.268;2024-03-08T13:55:00;9.10;99.90
11079;DHT22;5592;49.234;7.268;2024-03-08T13:57:26;9.20;99.90
11079;DHT22;5592;49.234;7.268;2024-03-08T13:59:52;9.30;99.90
11079;DHT22;5592;49.234;7.268;2024-03-08T14:02:18;9.30;99.90
11079;DHT22;5592;49.234;7.268;2024-03-08T14:04:44;9.20;99.90
11079;DHT22;5592;49.234;7.268;2024-03-08T14:07:09;9.20;99.90
11079;DHT22;5592;49.234;7.268;2024-03-08T14:09:36;9.10;99.90
11079;DHT22;5592;49.234;7.268;2024-03-08T14:12:04;9.10;99.90
11079;DHT22;5592;49.234;7.268;2024-03-08T14:14:33;9.10;99.90
11079;DHT22;5592;49.234;7.268;2024-03-08T14:17:02;9.10;99.90
11079;DHT22;5592;49.234;7.268;2024-03-08T14:19:29;9.00;99.90
11079;DHT22;5592;49.234;7.268;2024-03-08T14:21:59;9.10;99.90
11079;DHT22;5592;49.234;7.268;2024-03-08T14:24:25;9.10;99.90
11079;DHT22;5592;49.234;7.268;2024-03-08T14:26:51;9.10;99.90
11079;DHT22;5592;49.234;7.268;2024-03-08T14:29:17;9.10;99.90
11079;DHT22;5592;49.234;7.268;2024-03-08T14:31:44;9.20;99.90
11079;DHT22;5592;49.234;7.268;2024-03-08T14:34:10;9.20;99.90
11079;DHT22;5592;49.234;7.268;2024-03-08T14:36:36;9.10;99.90
11079;DHT22;5592;49.234;7.268;2024-03-08T14:39:03;9.00;99.90
11079;DHT22;5592;49.234;7.268;2024-03-08T14:41:29;9.00;99.90
11079;DHT22;5592;49.234;7.268;2024-03-08T14:43:56;9.10;99.90
11079;DHT22;5592;49.234;7.268;2024-03-08T14:46:22;9.10;99.90
11079;DHT22;5592;49.234;7.268;2024-03-08T14:48:51;9.10;99.90
11079;DHT22;5592;49.234;7.268;2024-03-08T14:51:20;9.10;99.90
11079;DHT22;5592;49.234;7.268;2024-03-08T14:53:54;9.10;99.90
11079;DHT22;5592;49.234;7.268;2024-03-08T14:56:21;9.00;99.90
11079;DHT22;5592;49.234;7.268;2024-03-08T14:58:47;8.90;99.90
11079;DHT22;5592;49.234;7.268;2024-03-08T15:01:15;8.90;99.90
11079;DHT22;5592;49.234;7.268;2024-03-08T15:03:41;8.90;99.90
11079;DHT22;5592;49.234;7.268;2024-03-08T15:06:10;8.90;99.90
11079;DHT22;5592;49.234;7.268;2024-03-08T15:08:36;8.90;99.90
11079;DHT22;5592;49.234;7.268;2024-03-08T15:11:02;8.90;99.90
11079;DHT22;5592;49.234;7.268;2024-03-08T15:13:28;8.90;99.90
11079;DHT22;5592;49.234;7.268;2024-03-08T15:15:59;8.90;99.90
11079;DHT22;5592;49.234;7.268;2024-03-08T15:18:25;8.80;99.90
11079;DHT22;5592;49.234;7.268;2024-03-08T15:20:54;8.90;99.90
11079;DHT22;5592;49.234;7.268;2024-03-08T15:23:20;8.90;99.90
11079;DHT22;5592;49.234;7.268;2024-03-08T15:25:50;8.80;99.90
11079;DHT22;5592;49.234;7.268;2024-03-08T15:28:16;8.70;99.90
11079;DHT22;5592;49.234;7.268;2024-03-08T15:30:44;8.80;99.90
11079;DHT22;5592;49.234;7.268;2024-03-08T15:33:13;8.80;99.90
11079;DHT22;5592;49.234;7.268;2024-03-08T15:35:41;8.80;99.90
11079;DHT22;5592;49.234;7.268;2024-03-08T15:38:07;8.70;99.90
11079;DHT22;5592;49.234;7.268;2024-03-08T15:40:33;8.70;99.90
11079;DHT22;5592;49.234;7.268;2024-03-08T15:43:00;8.70;99.90
11079;DHT22;5592;49.234;7.268;2024-03-08T15:45:26;8.60;99.90
11079;DHT22;5592;49.234;7.268;2024-03-08T15:48:02;8.60;99.90
11079;DHT22;5592;49.234;7.268;2024-03-08T15:50:30;8.50;99.90
11079;DHT22;5592;49.234;7.268;2024-03-08T15:52:57;8.50;99.90
11079;DHT22;5592;49.234;7.268;2024-03-08T15:55:24;8.60;99.90
11079;DHT22;5592;49.234;7.268;2024-03-08T15:57:52;8.60;99.90
11079;DHT22;5592;49.234;7.268;2024-03-08T16:00:21;8.50;99.90
11079;DHT22;5592;49.234;7.268;2024-03-08T16:03:03;8.40;99.90
11079;DHT22;5592;49.234;7.268;2024-03-08T16:05:32;8.40;99.90
11079;DHT22;5592;49.234;7.268;2024-03-08T16:07:58;8.40;99.90
11079;DHT22;5592;49.234;7.268;2024-03-08T16:10:25;8.50;99.90
11079;DHT22;5592;49.234;7.268;2024-03-08T16:12:51;8.50;99.90
11079;DHT22;5592;49.234;7.268;2024-03-08T16:15:17;8.50;99.90
11079;DHT22;5592;49.234;7.268;2024-03-08T16:17:46;8.40;99.90
11079;DHT22;5592;49.234;7.268;2024-03-08T16:20:13;8.30;99.90
11079;DHT22;5592;49.234;7.268;2024-03-08T16:22:43;8.20;99.90
11079;DHT22;5592;49.234;7.268;2024-03-08T16:25:09;8.10;99.90